createdAt,value
2023-01-23T00:01:30.480Z,95969.91
2023-01-23T00:03:57.581Z,95967.31
2023-01-23T00:06:24.733Z,95970.66
2023-01-23T00:08:51.337Z,95977.34
2023-01-23T00:11:21.405Z,95978.22
2023-01-23T00:13:48.655Z,95977.44
2023-01-23T00:16:18.166Z,95973.41
2023-01-23T00:18:45.831Z,95974.13
2023-01-23T00:21:15.467Z,95979.84
2023-01-23T00:23:44.123Z,95979.84
2023-01-23T00:26:16.812Z,95984.03
2023-01-23T00:28:46.604Z,95978.91
2023-01-23T00:31:20.043Z,95972.22
2023-01-23T00:33:52.671Z,95981.31
2023-01-23T00:36:21.957Z,95975.41
2023-01-23T00:38:48.558Z,95981.13
2023-01-23T00:41:15.201Z,95977.59
2023-01-23T00:43:42.363Z,95982.47
2023-01-23T00:46:10.433Z,95983.88
2023-01-23T00:48:37.014Z,95988.75
2023-01-23T00:51:04.277Z,95982.72
2023-01-23T00:53:30.929Z,95975.91
2023-01-23T00:55:57.587Z,95975.72
2023-01-23T00:58:24.373Z,95979.78
2023-01-23T01:00:51.036Z,95982.09
2023-01-23T01:03:19.338Z,95986.97
2023-01-23T01:05:46.797Z,95990.91
2023-01-23T01:08:13.421Z,95992.31
2023-01-23T01:10:41.522Z,95996.19
2023-01-23T01:13:09.740Z,95997.75
2023-01-23T01:15:37.716Z,95999.25
2023-01-23T01:18:05.310Z,95999.06
2023-01-23T01:20:31.885Z,96002.25
2023-01-23T01:22:59.185Z,96003.84
2023-01-23T01:25:25.835Z,96002.00
2023-01-23T01:27:55.917Z,95999.19
2023-01-23T01:30:23.256Z,95998.19
2023-01-23T01:32:49.916Z,95999.63
2023-01-23T01:35:16.533Z,95993.63
2023-01-23T01:37:43.091Z,95988.41
2023-01-23T01:40:14.603Z,95992.47
2023-01-23T01:42:52.295Z,95994.00
2023-01-23T01:45:56.381Z,95990.56
2023-01-23T01:48:26.660Z,95984.69
2023-01-23T01:50:53.952Z,95984.78
2023-01-23T01:53:23.258Z,95984.28
2023-01-23T01:55:50.731Z,95976.97
2023-01-23T01:58:18.295Z,95973.03
2023-01-23T02:00:45.140Z,95985.09
2023-01-23T02:03:12.199Z,95986.22
2023-01-23T02:05:49.720Z,95981.41
2023-01-23T02:08:43.029Z,95979.81
2023-01-23T02:11:09.985Z,95974.03
2023-01-23T02:13:39.753Z,95968.19
2023-01-23T02:16:24.052Z,95980.63
2023-01-23T02:18:54.618Z,95976.41
2023-01-23T02:21:25.452Z,95978.06
2023-01-23T02:24:01.839Z,95971.31
2023-01-23T02:26:36.726Z,95976.31
2023-01-23T02:29:05.763Z,95975.50
2023-01-23T02:31:42.876Z,95973.03
2023-01-23T02:34:12.536Z,95977.25
2023-01-23T02:36:42.684Z,95966.38
2023-01-23T02:39:15.833Z,95972.91
2023-01-23T02:41:48.606Z,95966.16
2023-01-23T02:44:31.779Z,95963.63
2023-01-23T02:47:08.043Z,95957.66
2023-01-23T02:49:34.771Z,95960.09
2023-01-23T02:52:04.253Z,95953.28
2023-01-23T02:54:31.732Z,95956.50
2023-01-23T02:56:58.558Z,95951.44
2023-01-23T02:59:43.814Z,95964.88
2023-01-23T03:02:11.063Z,95961.59
2023-01-23T03:04:37.698Z,95971.56
2023-01-23T03:07:04.340Z,95984.09
2023-01-23T03:09:31.036Z,95985.66
2023-01-23T03:12:02.297Z,95990.69
2023-01-23T03:14:30.170Z,95985.69
2023-01-23T03:16:58.599Z,95994.72
2023-01-23T03:19:31.252Z,95987.88
2023-01-23T03:22:01.727Z,95996.97
2023-01-23T03:24:28.359Z,95996.13
2023-01-23T03:26:55.075Z,95996.03
2023-01-23T03:29:44.742Z,95991.66
2023-01-23T03:32:15.160Z,95984.88
2023-01-23T03:34:42.894Z,95994.06
2023-01-23T03:37:11.574Z,95989.81
2023-01-23T03:39:57.870Z,95988.97
2023-01-23T03:42:25.335Z,95992.19
2023-01-23T03:44:54.091Z,95994.66
2023-01-23T03:47:26.257Z,95992.09
2023-01-23T03:49:54.184Z,95986.88
2023-01-23T03:52:20.742Z,95981.81
2023-01-23T03:54:47.461Z,95979.19
2023-01-23T03:57:14.056Z,95971.69
2023-01-23T03:59:59.301Z,95979.94
2023-01-23T04:02:29.336Z,95975.75
2023-01-23T04:04:56.285Z,95984.84
2023-01-23T04:07:22.956Z,95987.41
2023-01-23T04:09:49.903Z,95984.06
2023-01-23T04:12:16.604Z,95990.84
2023-01-23T04:14:47.357Z,95994.16
2023-01-23T04:17:14.539Z,95994.16
2023-01-23T04:19:41.190Z,95988.25
2023-01-23T04:22:07.771Z,95993.09
2023-01-23T04:24:40.488Z,95996.31
2023-01-23T04:27:07.109Z,95994.63
2023-01-23T04:29:34.907Z,95992.03
2023-01-23T04:32:02.440Z,95997.09
2023-01-23T04:34:30.904Z,95997.75
2023-01-23T04:36:58.002Z,96001.94
2023-01-23T04:39:24.783Z,96006.28
2023-01-23T04:41:51.393Z,96010.56
2023-01-23T04:44:27.496Z,96015.63
2023-01-23T04:47:12.805Z,96018.19
2023-01-23T04:49:39.832Z,96009.09
2023-01-23T04:52:06.773Z,96013.88
2023-01-23T04:54:37.541Z,96005.59
2023-01-23T04:57:04.366Z,96008.00
2023-01-23T04:59:32.109Z,96003.66
2023-01-23T05:01:58.680Z,95999.41
2023-01-23T05:04:25.590Z,96000.97
2023-01-23T05:06:52.255Z,95996.81
2023-01-23T05:09:18.889Z,96002.59
2023-01-23T05:11:50.925Z,95998.53
2023-01-23T05:14:18.673Z,95994.19
2023-01-23T05:16:47.828Z,95991.47
2023-01-23T05:19:17.886Z,95992.25
2023-01-23T05:21:46.385Z,95992.94
2023-01-23T05:24:19.509Z,95998.88
2023-01-23T05:26:48.983Z,96008.91
2023-01-23T05:29:16.619Z,96010.59
2023-01-23T05:31:58.360Z,96015.59
2023-01-23T05:34:37.429Z,96019.00
2023-01-23T05:37:10.296Z,96020.56
2023-01-23T05:39:38.795Z,96031.41
2023-01-23T05:42:07.101Z,96040.69
2023-01-23T05:44:59.167Z,96038.34
2023-01-23T05:47:30.204Z,96032.97
2023-01-23T05:49:57.552Z,96044.84
2023-01-23T05:52:28.386Z,96047.41
2023-01-23T05:54:55.152Z,96036.53
2023-01-23T05:57:22.059Z,96030.72
2023-01-23T06:00:11.456Z,96039.69
2023-01-23T06:02:57.497Z,96036.63
2023-01-23T06:05:37.606Z,96036.59
2023-01-23T06:08:12.724Z,96044.06
2023-01-23T06:10:39.536Z,96036.53
2023-01-23T06:13:06.421Z,96035.66
2023-01-23T06:15:34.971Z,96037.91
2023-01-23T06:18:08.883Z,96044.69
2023-01-23T06:20:35.771Z,96048.00
2023-01-23T06:23:11.945Z,96050.38
2023-01-23T06:25:39.222Z,96056.31
2023-01-23T06:28:08.721Z,96048.13
2023-01-23T06:30:37.319Z,96053.00
2023-01-23T06:33:09.368Z,96050.63
2023-01-23T06:35:40.603Z,96059.72
2023-01-23T06:38:07.314Z,96048.69
2023-01-23T06:40:33.973Z,96037.75
2023-01-23T06:43:13.407Z,96047.00
2023-01-23T06:45:45.949Z,96044.59
2023-01-23T06:48:13.104Z,96033.72
2023-01-23T06:50:42.702Z,96041.94
2023-01-23T06:53:14.188Z,96030.19
2023-01-23T06:55:41.054Z,96038.59
2023-01-23T06:58:10.081Z,96035.88
2023-01-23T07:00:44.353Z,96037.41
2023-01-23T07:03:17.232Z,96049.28
2023-01-23T07:05:43.841Z,96040.97
2023-01-23T07:08:11.593Z,96047.50
2023-01-23T07:10:38.688Z,96054.81
2023-01-23T07:13:10.303Z,96055.66
2023-01-23T07:15:37.892Z,96047.19
2023-01-23T07:18:05.677Z,96046.41
2023-01-23T07:20:32.394Z,96052.97
2023-01-23T07:22:59.886Z,96054.69
2023-01-23T07:25:26.560Z,96067.38
2023-01-23T07:27:53.187Z,96051.19
2023-01-23T07:30:20.324Z,96060.34
2023-01-23T07:32:47.192Z,96070.47
2023-01-23T07:35:13.829Z,96077.94
2023-01-23T07:37:40.452Z,96082.25
2023-01-23T07:40:07.617Z,96067.63
2023-01-23T07:42:34.192Z,96063.38
2023-01-23T07:45:00.987Z,96060.78
2023-01-23T07:47:27.621Z,96075.25
2023-01-23T07:49:54.211Z,96084.56
2023-01-23T07:52:20.781Z,96095.28
2023-01-23T07:54:47.344Z,96081.88
2023-01-23T07:57:13.917Z,96085.88
2023-01-23T07:59:40.556Z,96070.59
2023-01-23T08:02:10.594Z,96077.16
2023-01-23T08:04:37.607Z,96092.34
2023-01-23T08:07:04.388Z,96094.03
2023-01-23T08:09:31.001Z,96099.06
2023-01-23T08:11:57.847Z,96104.72
2023-01-23T08:14:24.469Z,96098.13
2023-01-23T08:16:53.145Z,96093.31
2023-01-23T08:19:19.811Z,96093.13
2023-01-23T08:21:47.032Z,96082.19
2023-01-23T08:24:14.126Z,96080.44
2023-01-23T08:26:42.065Z,96084.44
2023-01-23T08:29:09.083Z,96086.88
2023-01-23T08:31:39.318Z,96082.75
2023-01-23T08:34:06.228Z,96090.09
2023-01-23T08:36:33.020Z,96079.91
2023-01-23T08:39:00.102Z,96083.16
2023-01-23T08:41:26.692Z,96088.94
2023-01-23T08:43:53.303Z,96103.25
2023-01-23T08:46:20.084Z,96108.38
2023-01-23T08:48:46.681Z,96094.97
2023-01-23T08:51:14.402Z,96088.81
2023-01-23T08:53:42.063Z,96080.91
2023-01-23T08:56:16.801Z,96103.19
2023-01-23T08:58:44.061Z,96105.00
2023-01-23T09:01:16.256Z,96104.22
2023-01-23T09:03:42.958Z,96102.66
2023-01-23T09:06:11.774Z,96102.06
2023-01-23T09:08:38.377Z,96101.34
2023-01-23T09:11:07.050Z,96099.28
2023-01-23T09:13:34.507Z,96086.72
2023-01-23T09:16:01.959Z,96099.28
2023-01-23T09:18:28.992Z,96108.50
2023-01-23T09:20:58.429Z,96100.38
2023-01-23T09:23:25.389Z,96104.50
2023-01-23T09:25:52.108Z,96092.25
2023-01-23T09:28:18.699Z,96103.56
2023-01-23T09:30:45.333Z,96104.13
2023-01-23T09:33:11.987Z,96114.19
2023-01-23T09:35:38.572Z,96102.53
2023-01-23T09:38:07.548Z,96093.94
2023-01-23T09:40:45.732Z,96088.09
2023-01-23T09:43:16.802Z,96086.81
2023-01-23T09:46:05.443Z,96091.78
2023-01-23T09:48:42.954Z,96090.75
2023-01-23T09:51:28.211Z,96068.63
2023-01-23T09:54:01.616Z,96076.63
2023-01-23T09:56:35.246Z,96068.78
2023-01-23T09:59:13.398Z,96068.97
2023-01-23T10:01:40.194Z,96086.25
2023-01-23T10:04:10.376Z,96081.88
2023-01-23T10:06:52.739Z,96078.66
2023-01-23T10:09:19.160Z,96087.34
2023-01-23T10:11:57.657Z,96083.63
2023-01-23T10:14:43.056Z,96089.66
2023-01-23T10:17:18.755Z,96075.59
2023-01-23T10:19:51.219Z,96076.34
2023-01-23T10:22:29.980Z,96076.09
2023-01-23T10:24:58.228Z,96073.53
2023-01-23T10:27:33.802Z,96076.59
2023-01-23T10:30:03.938Z,96074.53
2023-01-23T10:32:37.505Z,96069.38
2023-01-23T10:35:12.382Z,96064.56
2023-01-23T10:38:12.576Z,96062.75
2023-01-23T10:40:57.686Z,96055.81
2023-01-23T10:43:26.827Z,96050.81
2023-01-23T10:45:53.435Z,96055.28
2023-01-23T10:48:32.266Z,96048.56
2023-01-23T10:51:00.160Z,96042.19
2023-01-23T10:53:27.527Z,96043.03
2023-01-23T10:55:58.087Z,96039.41
2023-01-23T10:58:38.668Z,96033.56
2023-01-23T11:01:07.248Z,96020.13
2023-01-23T11:03:35.688Z,96025.94
2023-01-23T11:06:08.210Z,96019.63
2023-01-23T11:08:40.559Z,96014.13
2023-01-23T11:11:18.907Z,96026.84
2023-01-23T11:13:47.965Z,96010.22
2023-01-23T11:16:21.188Z,96017.09
2023-01-23T11:19:09.954Z,96016.28
2023-01-23T11:21:56.715Z,96008.19
2023-01-23T11:24:38.367Z,96005.22
2023-01-23T11:27:15.327Z,96010.63
2023-01-23T11:30:12.715Z,96004.97
2023-01-23T11:32:51.123Z,95993.66
2023-01-23T11:35:25.935Z,95990.06
2023-01-23T11:37:55.872Z,95993.63
2023-01-23T11:40:22.803Z,95993.69
2023-01-23T11:42:49.475Z,95995.63
2023-01-23T11:45:26.568Z,95987.09
2023-01-23T11:47:59.259Z,95989.50
2023-01-23T11:50:57.123Z,95988.31
2023-01-23T11:53:41.420Z,95983.44
2023-01-23T11:56:33.703Z,95972.47
2023-01-23T11:59:03.161Z,95978.19
2023-01-23T12:02:03.538Z,95974.06
2023-01-23T12:04:36.635Z,95956.00
2023-01-23T12:07:21.038Z,95950.94
2023-01-23T12:09:59.994Z,95955.34
2023-01-23T12:12:57.961Z,95958.28
2023-01-23T12:16:07.135Z,95959.66
2023-01-23T12:19:01.114Z,95958.69
2023-01-23T12:21:47.963Z,95962.34
2023-01-23T12:24:34.579Z,95945.69
2023-01-23T12:27:06.508Z,95952.81
2023-01-23T12:29:47.927Z,95954.91
2023-01-23T12:32:35.894Z,95949.00
2023-01-23T12:35:14.617Z,95948.66
2023-01-23T12:37:48.395Z,95939.66
2023-01-23T12:40:31.731Z,95942.25
2023-01-23T12:43:16.638Z,95946.22
2023-01-23T12:45:56.749Z,95940.69
2023-01-23T12:48:30.602Z,95936.56
2023-01-23T12:51:12.512Z,95939.97
2023-01-23T12:53:41.763Z,95934.09
2023-01-23T12:56:16.414Z,95929.13
2023-01-23T12:58:55.898Z,95931.41
2023-01-23T13:01:50.964Z,95923.66
2023-01-23T13:04:42.889Z,95924.13
2023-01-23T13:07:27.250Z,95915.31
2023-01-23T13:10:05.955Z,95910.47
2023-01-23T13:12:33.046Z,95915.81
2023-01-23T13:15:27.763Z,95920.00
2023-01-23T13:18:02.450Z,95928.34
2023-01-23T13:20:52.591Z,95927.47
2023-01-23T13:23:20.614Z,95934.84
2023-01-23T13:25:47.768Z,95938.72
2023-01-23T13:28:45.237Z,95931.00
2023-01-23T13:31:34.433Z,95930.25
2023-01-23T13:34:14.907Z,95932.25
2023-01-23T13:36:50.052Z,95929.28
2023-01-23T13:39:16.734Z,95938.34
2023-01-23T13:41:45.316Z,95930.81
2023-01-23T13:44:40.729Z,95933.19
2023-01-23T14:22:13.848Z,95938.00
2023-01-23T14:24:48.413Z,95933.66
2023-01-23T14:27:44.460Z,95939.56
2023-01-23T14:30:21.452Z,95925.03
2023-01-23T14:32:48.031Z,95921.81
2023-01-23T14:35:31.210Z,95916.22
2023-01-23T14:38:00.649Z,95912.16
2023-01-23T14:40:30.728Z,95917.34
2023-01-23T14:43:09.109Z,95921.53
2023-01-23T14:45:37.461Z,95918.88
2023-01-23T14:48:13.391Z,95919.72
2023-01-23T14:50:40.268Z,95917.28
2023-01-23T14:53:13.890Z,95921.59
2023-01-23T14:55:44.718Z,95928.19
2023-01-23T14:58:22.507Z,95915.59
2023-01-23T15:00:50.468Z,95925.72
2023-01-23T15:03:37.897Z,95937.63
2023-01-23T15:06:09.882Z,95942.56
2023-01-23T15:08:37.796Z,95938.41
2023-01-23T15:11:06.599Z,95942.72
2023-01-23T15:13:55.217Z,95934.34
2023-01-23T15:16:29.022Z,95942.13
2023-01-23T15:19:04.724Z,95941.47
2023-01-23T15:21:34.621Z,95939.94
2023-01-23T15:24:05.436Z,95953.38
2023-01-23T15:26:35.342Z,95946.72
2023-01-23T15:29:04.855Z,95944.16
2023-01-23T15:31:32.820Z,95943.41
2023-01-23T15:34:15.149Z,95944.19
2023-01-23T15:36:50.907Z,95939.94
2023-01-23T15:39:38.302Z,95940.66
2023-01-23T15:42:13.709Z,95944.31
2023-01-23T15:44:42.106Z,95942.19
2023-01-23T15:47:09.052Z,95942.25
2023-01-23T15:49:38.479Z,95942.38
2023-01-23T15:52:27.064Z,95946.63
2023-01-23T15:54:56.960Z,95948.94
2023-01-23T15:57:23.608Z,95951.75
2023-01-23T15:59:50.416Z,95952.53
2023-01-23T16:02:32.621Z,95954.31
2023-01-23T16:05:01.726Z,95957.75
2023-01-23T16:07:34.511Z,95966.19
2023-01-23T16:10:04.657Z,95966.06
2023-01-23T16:12:32.699Z,95964.94
2023-01-23T16:14:59.456Z,95961.00
2023-01-23T16:17:26.117Z,95964.44
2023-01-23T16:19:54.344Z,95975.50
2023-01-23T16:22:27.108Z,95972.19
2023-01-23T16:24:53.965Z,95971.13
2023-01-23T16:27:27.262Z,95980.34
2023-01-23T16:29:55.392Z,95977.09
2023-01-23T16:32:22.207Z,95981.56
2023-01-23T16:34:48.849Z,95977.41
2023-01-23T16:37:17.428Z,95974.78
2023-01-23T16:39:45.425Z,95977.31
2023-01-23T16:42:30.601Z,95971.38
2023-01-23T16:44:57.704Z,95975.63
2023-01-23T16:47:24.747Z,95978.25
2023-01-23T16:49:53.304Z,95975.94
2023-01-23T16:52:24.949Z,95973.19
2023-01-23T16:54:53.240Z,95968.97
2023-01-23T16:57:21.143Z,95973.25
2023-01-23T16:59:49.878Z,95974.09
2023-01-23T17:02:29.564Z,95977.56
2023-01-23T17:05:07.270Z,95978.91
2023-01-23T17:07:33.837Z,95982.03
2023-01-23T17:10:00.448Z,95983.22
2023-01-23T17:12:32.010Z,95981.72
2023-01-23T17:14:58.706Z,95975.03
2023-01-23T17:17:31.815Z,95974.31
2023-01-23T17:19:59.136Z,95981.09
2023-01-23T17:22:30.435Z,95974.97
2023-01-23T17:24:57.248Z,95979.03
2023-01-23T17:27:24.092Z,95987.56
2023-01-23T17:29:50.877Z,95989.47
2023-01-23T17:32:31.221Z,95981.63
2023-01-23T17:35:02.528Z,95979.09
2023-01-23T17:37:29.770Z,95979.97
2023-01-23T17:39:56.348Z,95979.97
2023-01-23T17:42:23.023Z,95978.19
2023-01-23T17:44:49.655Z,95988.41
2023-01-23T17:47:16.852Z,95992.59
2023-01-23T17:49:51.591Z,95989.63
2023-01-23T17:52:20.214Z,95993.47
2023-01-23T17:54:46.840Z,95995.31
2023-01-23T17:57:14.951Z,95992.88
2023-01-23T17:59:41.633Z,95985.56
2023-01-23T18:02:28.662Z,96001.66
2023-01-23T18:04:56.015Z,95999.78
2023-01-23T18:07:22.671Z,96001.66
2023-01-23T18:09:49.409Z,96004.38
2023-01-23T18:12:27.431Z,96003.53
2023-01-23T18:15:06.322Z,96002.78
2023-01-23T18:17:36.667Z,95999.47
2023-01-23T18:20:13.580Z,95997.66
2023-01-23T18:22:43.295Z,95999.84
2023-01-23T18:25:15.726Z,96010.81
2023-01-23T18:27:46.868Z,96015.16
2023-01-23T18:30:47.443Z,96011.97
2023-01-23T18:33:20.005Z,96006.03
2023-01-23T18:36:15.430Z,96014.28
2023-01-23T18:38:57.247Z,96011.13
2023-01-23T18:41:27.062Z,96005.13
2023-01-23T18:44:06.573Z,96010.34
2023-01-23T18:46:33.752Z,96009.50
2023-01-23T18:49:00.642Z,96011.13
2023-01-23T18:51:47.234Z,96012.88
2023-01-23T18:54:29.087Z,96015.50
2023-01-23T18:57:20.504Z,96009.50
2023-01-23T19:00:05.578Z,96021.28
2023-01-23T19:02:46.508Z,96018.56
2023-01-23T19:05:19.177Z,96019.63
2023-01-23T19:07:46.540Z,96028.09
2023-01-23T19:10:18.782Z,96029.72
2023-01-23T19:13:07.588Z,96024.56
2023-01-23T19:15:49.126Z,96034.78
2023-01-23T19:18:41.789Z,96028.06
2023-01-23T19:21:18.005Z,96032.13
2023-01-23T19:23:59.323Z,96041.50
2023-01-23T19:26:33.123Z,96044.69
2023-01-23T19:29:08.382Z,96045.69
2023-01-23T19:31:49.746Z,96050.69
2023-01-23T19:34:22.310Z,96044.75
2023-01-23T19:36:48.919Z,96048.84
2023-01-23T19:39:15.494Z,96043.84
2023-01-23T19:41:45.574Z,96050.63
2023-01-23T19:44:14.519Z,96048.16
2023-01-23T19:46:42.432Z,96054.81
2023-01-23T19:49:12.589Z,96057.47
2023-01-23T19:51:42.825Z,96055.69
2023-01-23T19:54:13.701Z,96061.66
2023-01-23T19:56:40.993Z,96053.13
2023-01-23T19:59:08.000Z,96065.84
2023-01-23T20:01:40.758Z,96060.75
2023-01-23T20:04:15.984Z,96059.97
2023-01-23T20:06:45.463Z,96059.13
2023-01-23T20:09:14.587Z,96060.81
2023-01-23T20:11:42.537Z,96060.72
2023-01-23T20:14:09.132Z,96064.81
2023-01-23T20:16:40.108Z,96072.50
2023-01-23T20:19:07.356Z,96069.88
2023-01-23T20:21:36.985Z,96073.28
2023-01-23T20:24:03.876Z,96072.44
2023-01-23T20:26:30.583Z,96083.19
2023-01-23T20:28:58.043Z,96079.75
2023-01-23T20:31:24.793Z,96076.28
2023-01-23T20:33:51.591Z,96088.34
2023-01-23T20:36:21.207Z,96079.59
2023-01-23T20:38:48.185Z,96085.78
2023-01-23T20:41:18.784Z,96084.03
2023-01-23T20:43:46.168Z,96082.41
2023-01-23T20:46:16.452Z,96068.81
2023-01-23T20:48:45.252Z,96082.41
2023-01-23T20:51:16.709Z,96094.19
2023-01-23T20:53:43.689Z,96088.34
2023-01-23T20:56:16.108Z,96083.25
2023-01-23T20:59:03.296Z,96094.19
2023-01-23T21:01:53.770Z,96093.31
2023-01-23T21:04:21.955Z,96090.09
2023-01-23T21:06:48.764Z,96090.72
2023-01-23T21:09:15.874Z,96095.09
2023-01-23T21:11:42.471Z,96101.84
2023-01-23T21:14:09.098Z,96098.50
2023-01-23T21:16:36.020Z,96101.00
2023-01-23T21:19:02.776Z,96101.03
2023-01-23T21:21:29.446Z,96103.56
2023-01-23T21:23:56.077Z,96098.47
2023-01-23T21:26:27.870Z,96106.72
2023-01-23T21:28:56.594Z,96102.53
2023-01-23T21:31:26.255Z,96104.34
2023-01-23T21:33:53.384Z,96100.94
2023-01-23T21:36:23.405Z,96096.72
2023-01-23T21:38:51.445Z,96103.47
2023-01-23T21:41:18.600Z,96106.94
2023-01-23T21:43:45.278Z,96108.53
2023-01-23T21:46:12.029Z,96106.00
2023-01-23T21:48:39.079Z,96110.13
2023-01-23T21:51:22.171Z,96109.31
2023-01-23T21:53:50.139Z,96114.44
2023-01-23T21:56:19.701Z,96117.00
2023-01-23T21:58:49.734Z,96114.59
2023-01-23T22:01:38.005Z,96121.22
2023-01-23T22:04:10.942Z,96114.19
2023-01-23T22:06:39.647Z,96109.25
2023-01-23T22:09:07.075Z,96106.72
2023-01-23T22:11:34.794Z,96114.47
2023-01-23T22:14:02.052Z,96107.47
2023-01-23T22:16:46.878Z,96116.84
2023-01-23T22:19:16.931Z,96105.06
2023-01-23T22:21:46.138Z,96117.78
2023-01-23T22:24:15.680Z,96116.13
2023-01-23T22:26:42.863Z,96122.84
2023-01-23T22:29:11.012Z,96115.16
2023-01-23T22:31:37.724Z,96122.63
2023-01-23T22:34:04.445Z,96128.59
2023-01-23T22:36:31.019Z,96131.22
2023-01-23T22:38:57.641Z,96124.31
2023-01-23T22:41:24.448Z,96127.00
2023-01-23T22:43:59.268Z,96122.63
2023-01-23T22:46:26.672Z,96128.63
2023-01-23T22:48:53.621Z,96121.03
2023-01-23T22:51:25.634Z,96119.22
2023-01-23T22:53:57.091Z,96122.47
2023-01-23T22:56:24.745Z,96128.53
2023-01-23T22:58:53.423Z,96123.47
2023-01-23T23:01:23.308Z,96127.75
2023-01-23T23:03:51.118Z,96129.38
2023-01-23T23:06:17.932Z,96127.53
2023-01-23T23:08:47.489Z,96129.38
2023-01-23T23:11:18.326Z,96126.06
2023-01-23T23:13:45.593Z,96122.56
2023-01-23T23:16:17.796Z,96127.69
2023-01-23T23:18:45.604Z,96129.41
2023-01-23T23:21:14.428Z,96132.75
2023-01-23T23:23:41.078Z,96125.94
2023-01-23T23:26:09.524Z,96128.31
2023-01-23T23:28:37.381Z,96125.00
2023-01-23T23:31:05.012Z,96124.16
2023-01-23T23:33:34.867Z,96114.97
2023-01-23T23:36:01.689Z,96117.41
2023-01-23T23:38:28.273Z,96119.75
2023-01-23T23:41:03.460Z,96124.00
2023-01-23T23:43:30.984Z,96112.19
2023-01-23T23:46:00.681Z,96120.41
2023-01-23T23:48:28.654Z,96113.56
2023-01-23T23:50:57.563Z,96117.09
2023-01-23T23:53:24.144Z,96113.09
2023-01-23T23:55:50.705Z,96119.81
2023-01-23T23:58:17.950Z,96113.91
